sensor_id;sensor_type;location;lat;lon;timestamp;pressure;altitude;pressure_sealevel;temperature;humidity
26865;BME280;40618;51.166;10.322;2022-09-19T00:01:28;96844.78;;;6.70;81.17
26865;BME280;40618;51.166;10.322;2022-09-19T00:03:58;96847.31;;;6.71;80.41
26865;BME280;40618;51.166;10.322;2022-09-19T00:06:28;96853.38;;;6.69;81.05
26865;BME280;40618;51.166;10.322;2022-09-19T00:08:56;96849.94;;;6.68;81.22
26865;BME280;40618;51.166;10.322;2022-09-19T00:11:24;96843.91;;;6.69;80.96
26865;BME280;40618;51.166;10.322;2022-09-19T00:13:52;96857.59;;;6.71;81.32
26865;BME280;40618;51.166;10.322;2022-09-19T00:16:31;96856.69;;;6.72;81.17
26865;BME280;40618;51.166;10.322;2022-09-19T00:19:00;96859.22;;;6.75;81.54
26865;BME280;40618;51.166;10.322;2022-09-19T00:21:29;96871.19;;;6.76;81.30
26865;BME280;40618;51.166;10.322;2022-09-19T00:23:58;96871.09;;;6.81;81.19
26865;BME280;40618;51.166;10.322;2022-09-19T00:26:43;96867.59;;;6.84;80.71
26865;BME280;40618;51.166;10.322;2022-09-19T00:29:13;96865.78;;;6.87;81.43
26865;BME280;40618;51.166;10.322;2022-09-19T00:31:41;96875.97;;;6.92;81.10
26865;BME280;40618;51.166;10.322;2022-09-19T00:34:09;96876.72;;;6.95;81.84
26865;BME280;40618;51.166;10.322;2022-09-19T00:36:37;96881.81;;;6.99;81.63
26865;BME280;40618;51.166;10.322;2022-09-19T00:39:05;96878.31;;;7.01;81.44
26865;BME280;40618;51.166;10.322;2022-09-19T00:41:32;96891.09;;;7.04;81.15
26865;BME280;40618;51.166;10.322;2022-09-19T00:44:03;96876.41;;;7.08;81.45
26865;BME280;40618;51.166;10.322;2022-09-19T00:46:54;96891.75;;;7.13;81.56
26865;BME280;40618;51.166;10.322;2022-09-19T00:49:45;96894.25;;;7.16;81.39
26865;BME280;40618;51.166;10.322;2022-09-19T00:52:17;96900.22;;;7.18;81.11
26865;BME280;40618;51.166;10.322;2022-09-19T00:54:52;96901.00;;;7.20;81.29
26865;BME280;40618;51.166;10.322;2022-09-19T00:57:17;96903.53;;;7.21;81.13
26865;BME280;40618;51.166;10.322;2022-09-19T00:59:48;96911.22;;;7.23;81.47
26865;BME280;40618;51.166;10.322;2022-09-19T01:02:15;96907.78;;;7.24;81.55
26865;BME280;40618;51.166;10.322;2022-09-19T01:04:46;96912.09;;;7.23;81.01
26865;BME280;40618;51.166;10.322;2022-09-19T01:09:53;96915.50;;;7.24;81.62
26865;BME280;40618;51.166;10.322;2022-09-19T01:12:51;96925.78;;;7.24;81.36
26865;BME280;40618;51.166;10.322;2022-09-19T01:15:45;96922.38;;;7.23;81.21
26865;BME280;40618;51.166;10.322;2022-09-19T01:18:43;96931.81;;;7.23;81.59
26865;BME280;40618;51.166;10.322;2022-09-19T01:21:24;96927.50;;;7.25;81.31
26865;BME280;40618;51.166;10.322;2022-09-19T01:32:02;96941.97;;;7.29;81.60
26865;BME280;40618;51.166;10.322;2022-09-19T01:34:40;96946.31;;;7.28;81.43
26865;BME280;40618;51.166;10.322;2022-09-19T01:37:19;96946.31;;;7.28;81.20
26865;BME280;40618;51.166;10.322;2022-09-19T01:39:55;96951.41;;;7.30;81.52
26865;BME280;40618;51.166;10.322;2022-09-19T01:42:24;96951.38;;;7.32;81.67
26865;BME280;40618;51.166;10.322;2022-09-19T01:44:50;96958.22;;;7.31;81.38
26865;BME280;40618;51.166;10.322;2022-09-19T01:50:09;96971.09;;;7.33;81.63
26865;BME280;40618;51.166;10.322;2022-09-19T02:01:22;96987.28;;;7.36;81.43
26865;BME280;40618;51.166;10.322;2022-09-19T02:06:49;96985.53;;;7.38;81.90
26865;BME280;40618;51.166;10.322;2022-09-19T02:09:48;96998.34;;;7.41;81.85
26865;BME280;40618;51.166;10.322;2022-09-19T02:12:16;96996.56;;;7.43;81.99
26865;BME280;40618;51.166;10.322;2022-09-19T02:14:48;97005.97;;;7.44;82.25
26865;BME280;40618;51.166;10.322;2022-09-19T02:17:23;97011.97;;;7.47;81.30
26865;BME280;40618;51.166;10.322;2022-09-19T02:20:07;97011.97;;;7.47;81.66
26865;BME280;40618;51.166;10.322;2022-09-19T02:22:38;97019.69;;;7.47;82.18
26865;BME280;40618;51.166;10.322;2022-09-19T02:25:12;97022.22;;;7.48;81.53
26865;BME280;40618;51.166;10.322;2022-09-19T02:27:56;97025.63;;;7.49;81.64
26865;BME280;40618;51.166;10.322;2022-09-19T02:30:26;97027.34;;;7.50;81.91
26865;BME280;40618;51.166;10.322;2022-09-19T02:32:52;97029.03;;;7.51;81.17
26865;BME280;40618;51.166;10.322;2022-09-19T02:35:24;97025.59;;;7.50;81.54
26865;BME280;40618;51.166;10.322;2022-09-19T02:38:32;97039.34;;;7.51;81.96
26865;BME280;40618;51.166;10.322;2022-09-19T02:41:03;97041.88;;;7.52;81.48
26865;BME280;40618;51.166;10.322;2022-09-19T02:44:02;97042.66;;;7.54;82.26
26865;BME280;40618;51.166;10.322;2022-09-19T02:52:07;97046.84;;;7.58;81.53
26865;BME280;40618;51.166;10.322;2022-09-19T02:54:40;97046.03;;;7.58;81.57
26865;BME280;40618;51.166;10.322;2022-09-19T02:57:12;97056.34;;;7.58;81.78
26865;BME280;40618;51.166;10.322;2022-09-19T02:59:42;97057.13;;;7.61;81.27
26865;BME280;40618;51.166;10.322;2022-09-19T03:02:22;97057.94;;;7.62;81.69
26865;BME280;40618;51.166;10.322;2022-09-19T03:04:59;97072.56;;;7.61;81.45
26865;BME280;40618;51.166;10.322;2022-09-19T03:07:42;97072.63;;;7.60;81.85
26865;BME280;40618;51.166;10.322;2022-09-19T03:10:22;97069.16;;;7.59;81.35
26865;BME280;40618;51.166;10.322;2022-09-19T03:13:08;97076.03;;;7.60;81.58
26865;BME280;40618;51.166;10.322;2022-09-19T03:15:40;97076.91;;;7.59;81.67
26865;BME280;40618;51.166;10.322;2022-09-19T03:18:28;97082.88;;;7.61;82.11
26865;BME280;40618;51.166;10.322;2022-09-19T03:21:00;97087.22;;;7.59;81.85
26865;BME280;40618;51.166;10.322;2022-09-19T03:23:48;97094.91;;;7.61;82.04
26865;BME280;40618;51.166;10.322;2022-09-19T03:26:26;97096.63;;;7.60;81.34
26865;BME280;40618;51.166;10.322;2022-09-19T03:28:57;97098.34;;;7.61;81.69
26865;BME280;40618;51.166;10.322;2022-09-19T03:31:24;97096.59;;;7.62;81.86
26865;BME280;40618;51.166;10.322;2022-09-19T03:33:51;97104.34;;;7.62;82.27
26865;BME280;40618;51.166;10.322;2022-09-19T03:36:18;97101.72;;;7.63;82.16
26865;BME280;40618;51.166;10.322;2022-09-19T03:38:44;97113.72;;;7.65;81.79
26865;BME280;40618;51.166;10.322;2022-09-19T03:41:21;97109.41;;;7.65;81.77
26865;BME280;40618;51.166;10.322;2022-09-19T03:43:47;97106.81;;;7.65;81.47
26865;BME280;40618;51.166;10.322;2022-09-19T03:46:15;97117.97;;;7.67;82.12
26865;BME280;40618;51.166;10.322;2022-09-19T03:48:44;97124.81;;;7.68;81.79
26865;BME280;40618;51.166;10.322;2022-09-19T03:51:16;97124.81;;;7.68;82.35
26865;BME280;40618;51.166;10.322;2022-09-19T03:53:42;97124.81;;;7.68;81.61
26865;BME280;40618;51.166;10.322;2022-09-19T03:56:10;97123.88;;;7.71;81.40
26865;BME280;40618;51.166;10.322;2022-09-19T03:58:40;97129.88;;;7.71;81.80
26865;BME280;40618;51.166;10.322;2022-09-19T04:01:07;97126.44;;;7.71;81.92
26865;BME280;40618;51.166;10.322;2022-09-19T04:03:34;97131.59;;;7.72;81.98
26865;BME280;40618;51.166;10.322;2022-09-19T04:06:01;97141.03;;;7.72;82.45
26865;BME280;40618;51.166;10.322;2022-09-19T04:08:28;97131.59;;;7.71;81.77
26865;BME280;40618;51.166;10.322;2022-09-19T04:10:53;97152.22;;;7.72;82.37
26865;BME280;40618;51.166;10.322;2022-09-19T04:13:19;97147.84;;;7.74;82.55
26865;BME280;40618;51.166;10.322;2022-09-19T04:15:49;97152.97;;;7.76;81.54
26865;BME280;40618;51.166;10.322;2022-09-19T04:18:16;97150.38;;;7.76;82.24
26865;BME280;40618;51.166;10.322;2022-09-19T04:20:44;97162.41;;;7.77;82.13
26865;BME280;40618;51.166;10.322;2022-09-19T04:23:11;97159.78;;;7.78;82.45
26865;BME280;40618;51.166;10.322;2022-09-19T04:25:42;97170.03;;;7.80;81.82
26865;BME280;40618;51.166;10.322;2022-09-19T04:28:09;97171.78;;;7.79;82.28
26865;BME280;40618;51.166;10.322;2022-09-19T04:30:38;97177.78;;;7.80;81.95
26865;BME280;40618;51.166;10.322;2022-09-19T04:33:08;97176.88;;;7.83;81.66
26865;BME280;40618;51.166;10.322;2022-09-19T04:35:36;97179.44;;;7.83;81.81
26865;BME280;40618;51.166;10.322;2022-09-19T04:38:03;97181.97;;;7.84;81.80
26865;BME280;40618;51.166;10.322;2022-09-19T04:40:36;97191.41;;;7.85;82.46
26865;BME280;40618;51.166;10.322;2022-09-19T04:43:04;97188.78;;;7.87;82.55
26865;BME280;40618;51.166;10.322;2022-09-19T04:45:30;97192.22;;;7.87;82.04
26865;BME280;40618;51.166;10.322;2022-09-19T04:47:56;97188.78;;;7.87;82.17
26865;BME280;40618;51.166;10.322;2022-09-19T04:50:24;97195.66;;;7.88;82.02
26865;BME280;40618;51.166;10.322;2022-09-19T04:52:50;97199.06;;;7.88;82.21
26865;BME280;40618;51.166;10.322;2022-09-19T04:55:17;97196.44;;;7.90;81.95
26865;BME280;40618;51.166;10.322;2022-09-19T04:57:43;97201.59;;;7.90;82.16
26865;BME280;40618;51.166;10.322;2022-09-19T05:00:10;97205.06;;;7.90;82.05
26865;BME280;40618;51.166;10.322;2022-09-19T05:02:37;97206.75;;;7.91;82.21
26865;BME280;40618;51.166;10.322;2022-09-19T05:05:03;97215.31;;;7.92;81.52
26865;BME280;40618;51.166;10.322;2022-09-19T05:07:29;97214.50;;;7.91;81.76
26865;BME280;40618;51.166;10.322;2022-09-19T05:10:00;97217.94;;;7.90;82.17
26865;BME280;40618;51.166;10.322;2022-09-19T05:12:27;97215.31;;;7.92;81.68
26865;BME280;40618;51.166;10.322;2022-09-19T05:14:54;97223.03;;;7.93;82.09
26865;BME280;40618;51.166;10.322;2022-09-19T05:17:20;97232.47;;;7.94;81.76
26865;BME280;40618;51.166;10.322;2022-09-19T05:19:47;97242.72;;;7.96;82.03
26865;BME280;40618;51.166;10.322;2022-09-19T05:22:13;97245.31;;;7.96;81.72
26865;BME280;40618;51.166;10.322;2022-09-19T05:24:38;97233.34;;;7.93;82.41
26865;BME280;40618;51.166;10.322;2022-09-19T05:27:05;97231.59;;;7.94;82.41
26865;BME280;40618;51.166;10.322;2022-09-19T05:29:33;97257.38;;;7.95;81.86
26865;BME280;40618;51.166;10.322;2022-09-19T05:32:01;97247.00;;;7.97;81.72
26865;BME280;40618;51.166;10.322;2022-09-19T05:34:29;97250.47;;;7.96;81.46
26865;BME280;40618;51.166;10.322;2022-09-19T05:36:55;97257.38;;;7.95;82.10
26865;BME280;40618;51.166;10.322;2022-09-19T05:39:20;97260.78;;;7.96;81.80
26865;BME280;40618;51.166;10.322;2022-09-19T05:41:46;97262.53;;;7.94;82.27
26865;BME280;40618;51.166;10.322;2022-09-19T05:44:11;97265.09;;;7.94;81.54
26865;BME280;40618;51.166;10.322;2022-09-19T05:46:39;97270.25;;;7.94;81.76
26865;BME280;40618;51.166;10.322;2022-09-19T05:49:04;97266.84;;;7.93;82.19
26865;BME280;40618;51.166;10.322;2022-09-19T05:51:32;97271.13;;;7.94;82.66
26865;BME280;40618;51.166;10.322;2022-09-19T05:53:57;97277.13;;;7.95;82.24
26865;BME280;40618;51.166;10.322;2022-09-19T05:56:23;97278.91;;;7.93;82.51
26865;BME280;40618;51.166;10.322;2022-09-19T05:58:53;97286.63;;;7.93;82.35
26865;BME280;40618;51.166;10.322;2022-09-19T06:01:19;97283.16;;;7.94;81.97
26865;BME280;40618;51.166;10.322;2022-09-19T06:03:46;97279.69;;;7.95;82.44
26865;BME280;40618;51.166;10.322;2022-09-19T06:06:13;97284.78;;;7.98;82.39
26865;BME280;40618;51.166;10.322;2022-09-19T06:08:44;97287.31;;;8.01;81.83
26865;BME280;40618;51.166;10.322;2022-09-19T06:11:12;97286.41;;;8.02;82.31
26865;BME280;40618;51.166;10.322;2022-09-19T06:13:38;97288.16;;;8.02;81.97
26865;BME280;40618;51.166;10.322;2022-09-19T06:16:22;97288.13;;;8.03;82.03
26865;BME280;40618;51.166;10.322;2022-09-19T06:18:48;97299.28;;;8.04;81.71
26865;BME280;40618;51.166;10.322;2022-09-19T06:21:14;97300.97;;;8.05;82.05
26865;BME280;40618;51.166;10.322;2022-09-19T06:23:41;97300.94;;;8.06;82.27
26865;BME280;40618;51.166;10.322;2022-09-19T06:26:07;97295.78;;;8.06;81.98
26865;BME280;40618;51.166;10.322;2022-09-19T06:28:33;97310.38;;;8.07;81.80
26865;BME280;40618;51.166;10.322;2022-09-19T06:31:00;97304.34;;;8.08;81.88
26865;BME280;40618;51.166;10.322;2022-09-19T06:33:31;97307.00;;;8.05;81.78
26865;BME280;40618;51.166;10.322;2022-09-19T06:35:58;97307.88;;;8.04;82.04
26865;BME280;40618;51.166;10.322;2022-09-19T06:38:26;97315.56;;;8.06;81.63
26865;BME280;40618;51.166;10.322;2022-09-19T06:40:52;97318.09;;;8.07;81.96
26865;BME280;40618;51.166;10.322;2022-09-19T06:43:18;97321.56;;;8.08;82.11
26865;BME280;40618;51.166;10.322;2022-09-19T06:45:43;97322.34;;;8.10;81.89
26865;BME280;40618;51.166;10.322;2022-09-19T06:48:10;97336.09;;;8.10;82.45
26865;BME280;40618;51.166;10.322;2022-09-19T06:50:36;97337.75;;;8.13;82.00
26865;BME280;40618;51.166;10.322;2022-09-19T06:53:02;97338.63;;;8.13;82.17
26865;BME280;40618;51.166;10.322;2022-09-19T06:55:28;97331.63;;;8.17;82.06
26865;BME280;40618;51.166;10.322;2022-09-19T06:58:01;97341.06;;;8.18;81.76
26865;BME280;40618;51.166;10.322;2022-09-19T07:00:30;97347.06;;;8.20;82.81
26865;BME280;40618;51.166;10.322;2022-09-19T07:05:35;97351.28;;;8.23;82.26
26865;BME280;40618;51.166;10.322;2022-09-19T07:08:03;97365.00;;;8.25;82.28
26865;BME280;40618;51.166;10.322;2022-09-19T07:10:29;97364.97;;;8.26;82.21
26865;BME280;40618;51.166;10.322;2022-09-19T07:12:56;97369.28;;;8.26;82.17
26865;BME280;40618;51.166;10.322;2022-09-19T07:15:27;97373.59;;;8.25;82.35
26865;BME280;40618;51.166;10.322;2022-09-19T07:17:54;97375.31;;;8.25;82.30
26865;BME280;40618;51.166;10.322;2022-09-19T07:20:24;97376.09;;;8.30;81.88
26865;BME280;40618;51.166;10.322;2022-09-19T07:23:01;97370.06;;;8.31;82.27
26865;BME280;40618;51.166;10.322;2022-09-19T07:25:31;97375.16;;;8.33;82.05
26865;BME280;40618;51.166;10.322;2022-09-19T07:28:03;97377.72;;;8.34;81.87
26865;BME280;40618;51.166;10.322;2022-09-19T07:30:32;97375.94;;;8.36;81.94
26865;BME280;40618;51.166;10.322;2022-09-19T07:33:00;97393.94;;;8.38;82.05
26865;BME280;40618;51.166;10.322;2022-09-19T07:35:28;97385.28;;;8.40;82.30
26865;BME280;40618;51.166;10.322;2022-09-19T07:37:55;97386.97;;;8.43;82.28
26865;BME280;40618;51.166;10.322;2022-09-19T07:40:22;97388.72;;;8.42;81.80
26865;BME280;40618;51.166;10.322;2022-09-19T07:42:48;97395.56;;;8.42;81.66
26865;BME280;40618;51.166;10.322;2022-09-19T07:45:16;97398.19;;;8.40;82.09
26865;BME280;40618;51.166;10.322;2022-09-19T07:47:43;97408.53;;;8.40;82.25
26865;BME280;40618;51.166;10.322;2022-09-19T07:50:12;97408.53;;;8.40;82.70
26865;BME280;40618;51.166;10.322;2022-09-19T07:52:39;97410.16;;;8.44;82.11
26865;BME280;40618;51.166;10.322;2022-09-19T07:55:06;97419.56;;;8.49;82.65
26865;BME280;40618;51.166;10.322;2022-09-19T07:57:33;97413.47;;;8.51;82.82
26865;BME280;40618;51.166;10.322;2022-09-19T07:59:58;97413.50;;;8.50;82.20
26865;BME280;40618;51.166;10.322;2022-09-19T08:02:25;97424.66;;;8.52;82.43
26865;BME280;40618;51.166;10.322;2022-09-19T08:04:51;97423.72;;;8.56;82.73
26865;BME280;40618;51.166;10.322;2022-09-19T08:07:16;97427.91;;;8.60;82.75
26865;BME280;40618;51.166;10.322;2022-09-19T08:09:43;97424.34;;;8.66;82.56
26865;BME280;40618;51.166;10.322;2022-09-19T08:12:08;97422.56;;;8.68;83.05
26865;BME280;40618;51.166;10.322;2022-09-19T08:14:38;97425.09;;;8.69;82.74
26865;BME280;40618;51.166;10.322;2022-09-19T08:17:04;97437.06;;;8.73;82.93
26865;BME280;40618;51.166;10.322;2022-09-19T08:19:30;97436.16;;;8.76;82.78
26865;BME280;40618;51.166;10.322;2022-09-19T08:21:57;97436.09;;;8.79;83.25
26865;BME280;40618;51.166;10.322;2022-09-19T08:24:23;97435.13;;;8.83;82.89
26865;BME280;40618;51.166;10.322;2022-09-19T08:26:49;97446.22;;;8.87;82.50
26865;BME280;40618;51.166;10.322;2022-09-19T08:29:15;97443.63;;;8.87;82.27
26865;BME280;40618;51.166;10.322;2022-09-19T08:31:41;97439.31;;;8.89;82.54
26865;BME280;40618;51.166;10.322;2022-09-19T08:34:08;97446.94;;;8.93;82.74
26865;BME280;40618;51.166;10.322;2022-09-19T08:36:34;97448.59;;;8.96;82.50
26865;BME280;40618;51.166;10.322;2022-09-19T08:39:02;97441.69;;;8.98;83.25
26865;BME280;40618;51.166;10.322;2022-09-19T08:44:23;97459.75;;;8.96;82.72
26865;BME280;40618;51.166;10.322;2022-09-19T08:47:12;97458.94;;;8.96;82.90
26865;BME280;40618;51.166;10.322;2022-09-19T08:50:06;97462.28;;;9.00;83.00
26865;BME280;40618;51.166;10.322;2022-09-19T08:52:42;97453.63;;;9.02;82.03
26865;BME280;40618;51.166;10.322;2022-09-19T08:55:16;97465.59;;;9.06;82.36
26865;BME280;40618;51.166;10.322;2022-09-19T08:57:54;97464.63;;;9.09;82.71
26865;BME280;40618;51.166;10.322;2022-09-19T09:00:24;97467.03;;;9.17;82.14
26865;BME280;40618;51.166;10.322;2022-09-19T09:19:44;97474.53;;;9.27;82.36
26865;BME280;40618;51.166;10.322;2022-09-19T09:22:38;97472.75;;;9.31;82.07
26865;BME280;40618;51.166;10.322;2022-09-19T09:27:42;97470.91;;;9.35;82.16
26865;BME280;40618;51.166;10.322;2022-09-19T09:30:21;97479.41;;;9.40;81.96
26865;BME280;40618;51.166;10.322;2022-09-19T09:32:50;97472.38;;;9.45;82.70
26865;BME280;40618;51.166;10.322;2022-09-19T09:35:45;97475.66;;;9.52;82.56
26865;BME280;40618;51.166;10.322;2022-09-19T09:41:42;97474.75;;;9.53;82.07
26865;BME280;40618;51.166;10.322;2022-09-19T09:44:29;97483.34;;;9.55;82.27
26865;BME280;40618;51.166;10.322;2022-09-19T09:50:39;97472.84;;;9.94;82.61
26865;BME280;40618;51.166;10.322;2022-09-19T09:59:27;97473.53;;;10.01;82.06
26865;BME280;40618;51.166;10.322;2022-09-19T10:05:31;97479.00;;;9.90;81.91
26865;BME280;40618;51.166;10.322;2022-09-19T10:11:14;97480.75;;;9.88;82.03
26865;BME280;40618;51.166;10.322;2022-09-19T10:13:48;97483.25;;;9.92;82.03
26865;BME280;40618;51.166;10.322;2022-09-19T10:16:23;97486.69;;;9.91;81.62
26865;BME280;40618;51.166;10.322;2022-09-19T10:18:56;97483.28;;;9.89;81.63
26865;BME280;40618;51.166;10.322;2022-09-19T10:21:30;97482.47;;;9.89;81.64
26865;BME280;40618;51.166;10.322;2022-09-19T10:23:55;97489.34;;;9.90;81.95
26865;BME280;40618;51.166;10.322;2022-09-19T10:26:27;97491.94;;;9.90;81.82
26865;BME280;40618;51.166;10.322;2022-09-19T10:28:54;97495.31;;;9.92;81.74
26865;BME280;40618;51.166;10.322;2022-09-19T10:31:38;97488.06;;;10.05;82.25
26865;BME280;40618;51.166;10.322;2022-09-19T10:34:23;97481.59;;;10.20;81.64
26865;BME280;40618;51.166;10.322;2022-09-19T10:36:53;97482.91;;;10.36;81.64
26865;BME280;40618;51.166;10.322;2022-09-19T10:39:21;97476.66;;;10.43;81.66
26865;BME280;40618;51.166;10.322;2022-09-19T10:41:48;97473.00;;;10.50;81.51
26865;BME280;40618;51.166;10.322;2022-09-19T10:44:20;97478.88;;;10.56;81.21
26865;BME280;40618;51.166;10.322;2022-09-19T10:47:01;97473.88;;;10.49;81.42
26865;BME280;40618;51.166;10.322;2022-09-19T10:49:46;97474.06;;;10.43;81.33
26865;BME280;40618;51.166;10.322;2022-09-19T10:52:21;97463.44;;;10.53;81.58
26865;BME280;40618;51.166;10.322;2022-09-19T10:54:51;97469.09;;;10.65;81.44
26865;BME280;40618;51.166;10.322;2022-09-19T10:57:52;97465.03;;;10.85;81.23
26865;BME280;40618;51.166;10.322;2022-09-19T11:03:21;97463.66;;;11.03;81.20
26865;BME280;40618;51.166;10.322;2022-09-19T11:06:02;97458.47;;;11.03;80.78
26865;BME280;40618;51.166;10.322;2022-09-19T11:08:28;97468.81;;;11.03;80.58
26865;BME280;40618;51.166;10.322;2022-09-19T11:10:55;97474.84;;;11.04;80.45
26865;BME280;40618;51.166;10.322;2022-09-19T11:13:22;97466.25;;;11.01;80.00
26865;BME280;40618;51.166;10.322;2022-09-19T11:27:37;97456.88;;;10.97;80.13
26865;BME280;40618;51.166;10.322;2022-09-19T11:30:26;97448.78;;;11.08;79.86
26865;BME280;40618;51.166;10.322;2022-09-19T11:36:00;97447.53;;;11.47;79.86
26865;BME280;40618;51.166;10.322;2022-09-19T11:38:50;97432.50;;;11.57;79.41
26865;BME280;40618;51.166;10.322;2022-09-19T11:47:41;97447.94;;;11.60;78.91
26865;BME280;40618;51.166;10.322;2022-09-19T11:53:39;97451.25;;;11.65;78.35
26865;BME280;40618;51.166;10.322;2022-09-19T12:00:00;97434.28;;;11.80;78.26
26865;BME280;40618;51.166;10.322;2022-09-19T12:11:52;97448.03;;;11.82;77.74
26865;BME280;40618;51.166;10.322;2022-09-19T12:14:41;97453.47;;;11.76;77.63
26865;BME280;40618;51.166;10.322;2022-09-19T12:17:22;97457.44;;;11.61;77.16
26865;BME280;40618;51.166;10.322;2022-09-19T12:20:09;97463.16;;;11.44;77.05
26865;BME280;40618;51.166;10.322;2022-09-19T12:23:13;97464.38;;;11.33;77.47
26865;BME280;40618;51.166;10.322;2022-09-19T12:26:24;97462.97;;;11.23;77.37
26865;BME280;40618;51.166;10.322;2022-09-19T12:29:09;97448.72;;;11.10;77.50
26865;BME280;40618;51.166;10.322;2022-09-19T12:31:45;97446.19;;;11.08;77.98
26865;BME280;40618;51.166;10.322;2022-09-19T12:34:29;97447.88;;;11.09;77.88
26865;BME280;40618;51.166;10.322;2022-09-19T12:37:30;97445.25;;;11.11;78.00
26865;BME280;40618;51.166;10.322;2022-09-19T12:43:27;97426.63;;;11.25;78.36
26865;BME280;40618;51.166;10.322;2022-09-19T12:52:22;97428.16;;;11.57;77.86
26865;BME280;40618;51.166;10.322;2022-09-19T12:55:18;97422.66;;;11.66;77.87
26865;BME280;40618;51.166;10.322;2022-09-19T12:58:04;97422.09;;;11.82;78.10
26865;BME280;40618;51.166;10.322;2022-09-19T13:00:38;97424.91;;;12.01;78.14
26865;BME280;40618;51.166;10.322;2022-09-19T13:05:54;97426.84;;;12.19;77.67
26865;BME280;40618;51.166;10.322;2022-09-19T13:08:38;97426.59;;;12.26;77.71
26865;BME280;40618;51.166;10.322;2022-09-19T13:14:12;97430.56;;;12.36;77.49
26865;BME280;40618;51.166;10.322;2022-09-19T13:16:47;97427.72;;;12.42;77.27
26865;BME280;40618;51.166;10.322;2022-09-19T13:19:37;97426.75;;;12.45;77.10
26865;BME280;40618;51.166;10.322;2022-09-19T13:22:24;97421.00;;;12.36;76.88
26865;BME280;40618;51.166;10.322;2022-09-19T13:25:17;97428.78;;;12.36;76.96
26865;BME280;40618;51.166;10.322;2022-09-19T13:27:46;97442.97;;;12.28;76.66
26865;BME280;40618;51.166;10.322;2022-09-19T13:30:48;97453.00;;;12.13;76.66
26865;BME280;40618;51.166;10.322;2022-09-19T13:33:27;97449.63;;;11.86;77.19
26865;BME280;40618;51.166;10.322;2022-09-19T13:36:08;97452.25;;;11.61;77.21
26865;BME280;40618;51.166;10.322;2022-09-19T13:38:39;97454.56;;;11.43;77.39
26865;BME280;40618;51.166;10.322;2022-09-19T13:49:48;97457.09;;;11.18;78.27
26865;BME280;40618;51.166;10.322;2022-09-19T13:52:31;97462.19;;;11.21;78.39
26865;BME280;40618;51.166;10.322;2022-09-19T13:55:17;97455.16;;;11.25;78.33
26865;BME280;40618;51.166;10.322;2022-09-19T13:58:34;97461.97;;;11.27;78.33
26865;BME280;40618;51.166;10.322;2022-09-19T14:03:44;97459.56;;;11.23;78.06
26865;BME280;40618;51.166;10.322;2022-09-19T14:11:52;97468.44;;;11.14;77.95
26865;BME280;40618;51.166;10.322;2022-09-19T14:19:51;97482.16;;;11.17;77.73
26865;BME280;40618;51.166;10.322;2022-09-19T14:22:37;97484.72;;;11.19;77.99
26865;BME280;40618;51.166;10.322;2022-09-19T14:39:23;97471.59;;;10.97;77.72
26865;BME280;40618;51.166;10.322;2022-09-19T14:51:37;97450.81;;;10.70;77.06
26865;BME280;40618;51.166;10.322;2022-09-19T14:54:35;97460.41;;;10.68;77.36
26865;BME280;40618;51.166;10.322;2022-09-19T14:59:43;97457.00;;;10.66;77.06
26865;BME280;40618;51.166;10.322;2022-09-19T15:02:28;97461.28;;;10.67;77.28
26865;BME280;40618;51.166;10.322;2022-09-19T15:07:48;97456.91;;;10.69;77.25
26865;BME280;40618;51.166;10.322;2022-09-19T15:13:19;97452.28;;;10.79;77.28
26865;BME280;40618;51.166;10.322;2022-09-19T15:15:55;97447.84;;;10.82;76.83
26865;BME280;40618;51.166;10.322;2022-09-19T15:18:45;97446.03;;;10.86;76.87
26865;BME280;40618;51.166;10.322;2022-09-19T15:21:26;97450.38;;;10.86;77.09
26865;BME280;40618;51.166;10.322;2022-09-19T15:23:57;97458.09;;;10.87;76.79
26865;BME280;40618;51.166;10.322;2022-09-19T15:26:27;97460.78;;;10.84;76.42
26865;BME280;40618;51.166;10.322;2022-09-19T15:31:32;97476.72;;;10.70;76.09
26865;BME280;40618;51.166;10.322;2022-09-19T15:34:10;97491.47;;;10.68;76.36
26865;BME280;40618;51.166;10.322;2022-09-19T15:36:42;97492.47;;;10.64;76.27
26865;BME280;40618;51.166;10.322;2022-09-19T15:39:14;97501.06;;;10.64;76.54
26865;BME280;40618;51.166;10.322;2022-09-19T15:41:41;97506.19;;;10.66;76.11
26865;BME280;40618;51.166;10.322;2022-09-19T15:44:24;97511.34;;;10.68;76.24
26865;BME280;40618;51.166;10.322;2022-09-19T15:47:05;97509.59;;;10.68;76.40
26865;BME280;40618;51.166;10.322;2022-09-19T15:49:37;97503.53;;;10.69;75.79
26865;BME280;40618;51.166;10.322;2022-09-19T15:54:53;97492.31;;;10.69;76.34
26865;BME280;40618;51.166;10.322;2022-09-19T15:57:28;97489.72;;;10.69;76.44
26865;BME280;40618;51.166;10.322;2022-09-19T16:00:10;97499.19;;;10.70;76.25
26865;BME280;40618;51.166;10.322;2022-09-19T16:02:47;97515.63;;;10.69;75.85
26865;BME280;40618;51.166;10.322;2022-09-19T16:05:22;97518.25;;;10.67;76.39
26865;BME280;40618;51.166;10.322;2022-09-19T16:07:58;97523.47;;;10.65;75.78
26865;BME280;40618;51.166;10.322;2022-09-19T16:10:46;97548.59;;;10.62;76.24
26865;BME280;40618;51.166;10.322;2022-09-19T16:16:25;97551.88;;;10.37;76.32
26865;BME280;40618;51.166;10.322;2022-09-19T16:18:53;97559.16;;;10.23;76.29
26865;BME280;40618;51.166;10.322;2022-09-19T16:21:22;97576.69;;;10.13;76.14
26865;BME280;40618;51.166;10.322;2022-09-19T16:24:15;97594.16;;;10.03;76.31
26865;BME280;40618;51.166;10.322;2022-09-19T16:26:46;97595.06;;;10.02;76.45
26865;BME280;40618;51.166;10.322;2022-09-19T16:29:17;97594.31;;;9.97;76.75
26865;BME280;40618;51.166;10.322;2022-09-19T16:31:45;97590.22;;;9.90;76.44
26865;BME280;40618;51.166;10.322;2022-09-19T16:36:54;97581.06;;;9.76;77.04
26865;BME280;40618;51.166;10.322;2022-09-19T16:39:25;97588.16;;;9.68;77.25
26865;BME280;40618;51.166;10.322;2022-09-19T16:42:03;97593.75;;;9.49;76.59
26865;BME280;40618;51.166;10.322;2022-09-19T16:44:50;97593.28;;;9.34;77.34
26865;BME280;40618;51.166;10.322;2022-09-19T16:47:27;97611.59;;;9.23;77.56